createdAt,value
2022-12-14T00:02:56.858Z,-1.72
2022-12-14T00:05:59.612Z,-1.69
2022-12-14T00:09:05.841Z,-1.86
2022-12-14T00:12:10.114Z,-1.66
2022-12-14T00:15:13.196Z,-1.71
2022-12-14T00:18:22.497Z,-1.79
2022-12-14T00:21:26.241Z,-1.78
2022-12-14T00:24:33.654Z,-1.80
2022-12-14T00:27:36.679Z,-1.79
2022-12-14T00:30:39.444Z,-1.77
2022-12-14T00:33:46.809Z,-1.64
2022-12-14T00:36:49.522Z,-1.76
2022-12-14T00:39:56.174Z,-1.72
2022-12-14T00:42:58.892Z,-1.69
2022-12-14T00:46:08.490Z,-1.62
2022-12-14T00:49:11.685Z,-1.55
2022-12-14T00:52:14.574Z,-1.59
2022-12-14T00:55:18.651Z,-1.51
2022-12-14T00:58:23.267Z,-1.48
2022-12-14T01:01:26.690Z,-1.41
2022-12-14T01:04:32.792Z,-1.49
2022-12-14T01:07:37.378Z,-1.56
2022-12-14T01:10:41.859Z,-1.51
2022-12-14T01:13:44.635Z,-1.52
2022-12-14T01:16:58.224Z,-1.60
2022-12-14T01:20:00.930Z,-1.57
2022-12-14T01:23:03.816Z,-1.50
2022-12-14T01:26:12.142Z,-1.55
2022-12-14T01:29:16.249Z,-1.57
2022-12-14T01:32:18.998Z,-1.58
2022-12-14T01:35:21.768Z,-1.52
2022-12-14T01:38:24.485Z,-1.45
2022-12-14T01:41:30.741Z,-1.45
2022-12-14T01:44:55.833Z,-1.22
2022-12-14T01:48:04.451Z,-1.22
2022-12-14T01:51:07.549Z,-1.34
2022-12-14T01:54:13.641Z,-1.45
2022-12-14T01:57:22.020Z,-1.39
2022-12-14T02:00:25.017Z,-1.14
2022-12-14T02:03:32.011Z,-1.44
2022-12-14T02:06:42.876Z,-1.50
2022-12-14T02:09:48.102Z,-1.49
2022-12-14T02:12:58.318Z,-1.44
2022-12-14T02:16:01.958Z,-1.46
2022-12-14T02:19:04.779Z,-1.47
2022-12-14T02:22:36.695Z,-1.38
2022-12-14T02:26:06.549Z,-1.27
2022-12-14T02:29:36.778Z,-1.19
2022-12-14T02:32:58.888Z,-1.10
2022-12-14T02:36:11.905Z,-1.44
2022-12-14T02:39:25.814Z,-1.56
2022-12-14T02:42:40.982Z,-1.73
2022-12-14T02:45:51.466Z,-1.54
2022-12-14T02:49:00.357Z,-1.55
2022-12-14T02:52:08.605Z,-1.65
2022-12-14T02:55:17.113Z,-1.54
2022-12-14T02:58:24.874Z,-1.59
2022-12-14T03:01:31.145Z,-1.48
2022-12-14T03:04:48.247Z,-1.66
2022-12-14T03:07:53.827Z,-1.67
2022-12-14T03:10:59.481Z,-1.67
2022-12-14T03:14:07.938Z,-1.55
2022-12-14T03:17:19.793Z,-1.60
2022-12-14T03:20:26.421Z,-1.50
2022-12-14T03:23:34.837Z,-1.26
2022-12-14T03:26:47.667Z,-1.24
2022-12-14T03:29:57.609Z,-1.23
2022-12-14T03:33:14.468Z,-1.34
2022-12-14T03:36:26.338Z,-1.20
2022-12-14T03:39:35.777Z,-1.45
2022-12-14T03:42:49.414Z,-1.41
2022-12-14T03:45:59.337Z,-1.52
2022-12-14T03:49:15.439Z,-1.26
2022-12-14T03:52:26.460Z,-1.07
2022-12-14T03:55:39.746Z,-1.35
2022-12-14T03:58:57.341Z,-1.41
2022-12-14T04:02:15.073Z,-1.46
2022-12-14T04:05:28.033Z,-1.27
2022-12-14T04:08:41.751Z,-1.49
2022-12-14T04:12:09.792Z,-1.42
2022-12-14T04:15:32.855Z,-1.08
2022-12-14T04:19:00.445Z,-1.18
2022-12-14T04:22:08.917Z,-1.28
2022-12-14T04:25:34.730Z,-1.37
2022-12-14T04:29:07.530Z,-1.36
2022-12-14T04:32:14.698Z,-1.56
2022-12-14T04:35:24.785Z,-1.55
2022-12-14T04:38:37.908Z,-1.52
2022-12-14T04:41:44.671Z,-1.54
2022-12-14T04:44:52.233Z,-1.47
2022-12-14T04:48:11.315Z,-1.13
2022-12-14T04:51:20.982Z,-1.38
2022-12-14T04:54:28.943Z,-1.40
2022-12-14T04:57:38.143Z,-1.38
2022-12-14T05:00:58.965Z,-1.18
2022-12-14T05:04:12.693Z,-1.26
2022-12-14T05:07:34.123Z,-1.25
2022-12-14T05:10:45.484Z,-1.25
2022-12-14T05:13:51.308Z,-1.26
2022-12-14T05:16:54.242Z,-1.00
2022-12-14T05:19:56.979Z,-1.10
2022-12-14T05:22:59.945Z,-1.15
2022-12-14T05:26:04.869Z,-1.02
2022-12-14T05:29:07.711Z,-1.01
2022-12-14T05:32:12.446Z,-0.97
2022-12-14T05:35:15.802Z,-0.86
2022-12-14T05:38:18.576Z,-0.91
2022-12-14T05:41:22.609Z,-0.95
2022-12-14T05:44:25.307Z,-0.85
2022-12-14T05:47:28.175Z,-0.83
2022-12-14T05:50:31.251Z,-0.72
2022-12-14T05:53:34.176Z,-0.72
2022-12-14T05:56:38.427Z,-0.70
2022-12-14T05:59:41.108Z,-0.83
2022-12-14T06:02:45.742Z,-0.79
2022-12-14T06:05:48.633Z,-0.64
2022-12-14T06:08:52.288Z,-0.52
2022-12-14T06:11:56.311Z,-0.48
2022-12-14T06:14:58.978Z,-0.54
2022-12-14T06:18:01.612Z,-0.55
2022-12-14T06:21:04.679Z,-0.57
2022-12-14T06:24:08.687Z,-0.61
2022-12-14T06:27:12.890Z,-0.60
2022-12-14T06:30:17.011Z,-0.56
2022-12-14T06:33:19.754Z,-0.39
2022-12-14T06:36:25.330Z,-0.64
2022-12-14T06:39:28.058Z,-0.64
2022-12-14T06:42:35.289Z,-0.79
2022-12-14T06:45:40.911Z,-0.67
2022-12-14T06:48:50.664Z,-0.82
2022-12-14T06:51:53.747Z,-0.89
2022-12-14T06:54:56.485Z,-0.92
2022-12-14T06:58:03.521Z,-0.85
2022-12-14T07:01:08.554Z,-0.86
2022-12-14T07:04:13.769Z,-0.95
2022-12-14T07:07:16.589Z,-1.03
2022-12-14T07:10:21.630Z,-1.05
2022-12-14T07:13:25.961Z,-1.12
2022-12-14T07:16:30.339Z,-1.14
2022-12-14T07:19:33.172Z,-1.13
2022-12-14T07:22:39.242Z,-1.06
2022-12-14T07:25:41.977Z,-1.12
2022-12-14T07:28:53.407Z,-1.19
2022-12-14T07:31:57.060Z,-1.21
2022-12-14T07:34:59.726Z,-1.18
2022-12-14T07:38:02.454Z,-1.14
2022-12-14T07:41:10.886Z,-1.11
2022-12-14T07:44:15.237Z,-1.03
2022-12-14T07:47:20.269Z,-1.01
2022-12-14T07:50:24.073Z,-0.90
2022-12-14T07:53:32.176Z,-1.17
2022-12-14T07:56:39.737Z,-1.21
2022-12-14T07:59:44.705Z,-1.07
2022-12-14T08:02:47.737Z,-1.12
2022-12-14T08:05:50.514Z,-1.06
2022-12-14T08:08:54.597Z,-1.13
2022-12-14T08:12:00.330Z,-1.18
2022-12-14T08:15:05.621Z,-1.25
2022-12-14T08:18:08.306Z,-1.14
2022-12-14T08:21:14.093Z,-1.12
2022-12-14T08:24:26.020Z,-1.08
2022-12-14T08:27:31.333Z,-1.22
2022-12-14T08:30:39.417Z,-1.15
2022-12-14T08:33:43.336Z,-1.02
2022-12-14T08:36:46.024Z,-1.00
2022-12-14T08:39:50.575Z,-0.79
2022-12-14T08:42:53.276Z,-0.71
2022-12-14T08:45:59.884Z,-0.83
2022-12-14T08:49:03.118Z,-0.74
2022-12-14T08:52:11.094Z,-0.76
2022-12-14T08:55:13.841Z,-0.69
2022-12-14T08:58:19.566Z,-0.65
2022-12-14T09:01:32.162Z,-0.71
2022-12-14T09:04:35.973Z,-0.79
2022-12-14T09:07:38.703Z,-0.71
2022-12-14T09:10:41.403Z,-0.62
2022-12-14T09:13:44.783Z,-0.50
2022-12-14T09:16:48.917Z,-0.44
2022-12-14T09:19:51.667Z,-0.36
2022-12-14T09:22:54.751Z,-0.30
2022-12-14T09:26:02.650Z,-0.43
2022-12-14T09:29:15.960Z,-0.36
2022-12-14T09:32:19.969Z,-0.33
2022-12-14T09:35:23.122Z,-0.46
2022-12-14T09:38:25.803Z,-0.55
2022-12-14T09:41:50.914Z,-0.47
2022-12-14T09:45:01.872Z,-0.51
2022-12-14T09:48:19.410Z,-0.72
2022-12-14T09:51:23.961Z,-0.84
2022-12-14T09:54:32.948Z,-0.90
2022-12-14T09:57:38.985Z,-0.80
2022-12-14T10:00:51.364Z,-0.79
2022-12-14T10:04:06.028Z,-0.80
2022-12-14T10:07:18.116Z,-0.70
2022-12-14T10:10:26.592Z,-0.61
2022-12-14T10:13:49.775Z,-0.51
2022-12-14T10:17:05.914Z,-0.41
2022-12-14T10:20:20.146Z,-0.31
2022-12-14T10:23:26.045Z,-0.16
2022-12-14T10:26:38.781Z,-0.26
2022-12-14T10:29:45.019Z,-0.17
2022-12-14T10:32:59.543Z,-0.08
2022-12-14T10:36:18.863Z,-0.20
2022-12-14T10:39:31.138Z,-0.10
2022-12-14T10:42:43.561Z,-0.24
2022-12-14T10:46:02.285Z,-0.10
2022-12-14T10:49:14.743Z,-0.16
2022-12-14T10:52:23.299Z,-0.09
2022-12-14T10:55:30.387Z,-0.13
2022-12-14T10:58:33.569Z,-0.04
2022-12-14T11:01:36.778Z,0.15
2022-12-14T11:04:45.806Z,0.14
2022-12-14T11:07:50.070Z,0.28
2022-12-14T11:11:13.943Z,0.36
2022-12-14T11:14:23.608Z,0.38
2022-12-14T11:17:35.535Z,0.23
2022-12-14T11:20:39.491Z,0.24
2022-12-14T11:23:46.048Z,0.14
2022-12-14T11:26:50.825Z,0.22
2022-12-14T11:29:53.558Z,0.26
2022-12-14T11:32:56.473Z,0.14
2022-12-14T11:36:02.879Z,0.04
2022-12-14T11:39:19.628Z,0.00
2022-12-14T11:42:23.414Z,-0.01
2022-12-14T11:45:31.476Z,-0.05
2022-12-14T11:48:38.519Z,-0.04
2022-12-14T11:51:59.821Z,0.07
2022-12-14T11:55:13.408Z,0.10
2022-12-14T11:58:20.107Z,0.10
2022-12-14T12:01:26.676Z,0.09
2022-12-14T12:04:31.531Z,-0.01
2022-12-14T12:07:37.221Z,-0.11
2022-12-14T12:10:45.185Z,-0.06
2022-12-14T12:13:59.465Z,-0.07
2022-12-14T12:17:08.071Z,0.02
2022-12-14T12:20:21.549Z,0.08
2022-12-14T12:23:32.696Z,0.08
2022-12-14T12:26:42.298Z,0.18
2022-12-14T12:29:52.041Z,0.28
2022-12-14T12:33:00.549Z,0.20
2022-12-14T12:36:06.546Z,0.11
2022-12-14T12:39:15.998Z,0.06
2022-12-14T12:42:27.288Z,0.09
2022-12-14T12:45:36.198Z,0.17
2022-12-14T12:48:44.464Z,0.18
2022-12-14T12:51:50.380Z,0.15
2022-12-14T12:55:02.933Z,0.17
2022-12-14T12:58:10.319Z,0.14
2022-12-14T13:01:24.214Z,0.15
2022-12-14T13:04:33.681Z,0.22
2022-12-14T13:07:44.850Z,0.14
2022-12-14T13:14:30.607Z,0.14
2022-12-14T13:17:38.712Z,0.19
2022-12-14T13:20:41.584Z,0.18
2022-12-14T13:23:45.661Z,0.22
2022-12-14T13:27:18.408Z,0.20
2022-12-14T13:30:36.388Z,0.13
2022-12-14T13:34:08.163Z,-0.09
2022-12-14T13:37:51.127Z,0.08
2022-12-14T13:41:08.282Z,0.08
2022-12-14T13:44:44.085Z,0.08
2022-12-14T13:47:53.992Z,0.06
2022-12-14T13:51:02.617Z,0.03
2022-12-14T13:54:08.997Z,0.07
2022-12-14T13:57:15.257Z,0.11
2022-12-14T14:00:51.663Z,0.12
2022-12-14T14:04:18.363Z,0.03
2022-12-14T14:07:50.826Z,-0.02
2022-12-14T14:11:35.300Z,-0.06
2022-12-14T14:14:37.546Z,-0.01
2022-12-14T14:17:42.812Z,-0.10
2022-12-14T14:20:55.252Z,-0.13
2022-12-14T14:24:19.396Z,-0.08
2022-12-14T14:27:24.877Z,-0.08
2022-12-14T14:30:30.200Z,-0.15
2022-12-14T14:33:48.591Z,-0.15
2022-12-14T14:36:57.278Z,-0.13
2022-12-14T14:40:38.299Z,-0.16
2022-12-14T14:43:52.322Z,-0.21
2022-12-14T14:46:58.122Z,-0.21
2022-12-14T14:50:04.310Z,-0.25
2022-12-14T14:53:28.901Z,-0.24
2022-12-14T14:56:40.043Z,-0.22
2022-12-14T14:59:50.984Z,-0.25
2022-12-14T15:03:00.212Z,-0.25
2022-12-14T15:06:04.026Z,-0.19
2022-12-14T15:09:21.032Z,-0.19
2022-12-14T15:12:36.806Z,-0.17
2022-12-14T15:15:43.425Z,-0.16
2022-12-14T15:18:46.353Z,-0.17
2022-12-14T15:21:50.400Z,-0.19
2022-12-14T15:24:57.466Z,-0.19
2022-12-14T15:28:09.427Z,-0.20
2022-12-14T15:31:12.279Z,-0.15
2022-12-14T15:34:18.505Z,-0.15
2022-12-14T15:37:27.845Z,-0.09
2022-12-14T15:40:32.666Z,0.01
2022-12-14T15:43:35.426Z,0.02
2022-12-14T15:46:40.439Z,0.07
2022-12-14T15:49:44.106Z,0.04
2022-12-14T15:52:47.947Z,0.04
2022-12-14T15:56:00.255Z,0.00
2022-12-14T15:59:15.940Z,-0.05
2022-12-14T16:02:27.221Z,-0.06
2022-12-14T16:05:31.238Z,0.00
2022-12-14T16:08:36.406Z,0.03
2022-12-14T16:11:44.249Z,0.10
2022-12-14T16:14:54.085Z,0.10
2022-12-14T16:18:02.227Z,0.11
2022-12-14T16:21:05.691Z,0.11
2022-12-14T16:24:24.004Z,0.09
2022-12-14T16:27:29.058Z,0.17
2022-12-14T16:30:33.366Z,0.22
2022-12-14T16:33:39.410Z,0.22
2022-12-14T16:37:08.477Z,0.23
2022-12-14T16:40:24.671Z,0.14
2022-12-14T16:43:34.059Z,0.18
2022-12-14T16:46:44.266Z,0.17
2022-12-14T16:49:56.041Z,0.14
2022-12-14T16:53:16.874Z,0.11
2022-12-14T16:56:22.775Z,0.13
2022-12-14T16:59:31.333Z,0.12
2022-12-14T17:02:36.605Z,0.11
2022-12-14T17:05:41.931Z,0.11
2022-12-14T17:08:51.963Z,0.20
2022-12-14T17:12:07.277Z,0.11
2022-12-14T17:15:23.786Z,0.09
2022-12-14T17:18:35.898Z,0.08
2022-12-14T17:21:39.452Z,0.02
2022-12-14T17:24:42.938Z,0.11
2022-12-14T17:27:46.053Z,0.07
2022-12-14T17:30:51.018Z,0.03
2022-12-14T17:33:55.041Z,0.04
2022-12-14T17:36:58.381Z,0.06
2022-12-14T17:40:02.241Z,0.11
2022-12-14T17:43:10.426Z,0.15
2022-12-14T17:46:15.056Z,0.18
2022-12-14T17:49:33.854Z,0.21
2022-12-14T17:52:36.830Z,0.21
2022-12-14T17:55:39.648Z,0.17
2022-12-14T17:58:45.404Z,0.04
2022-12-14T18:01:49.831Z,0.07
2022-12-14T18:04:53.158Z,0.03
2022-12-14T18:07:55.922Z,0.00
2022-12-14T18:11:00.939Z,-0.01
2022-12-14T18:14:03.950Z,0.00
2022-12-14T18:17:11.405Z,0.00
2022-12-14T18:20:15.188Z,0.05
2022-12-14T18:23:19.216Z,0.03
2022-12-14T18:26:23.915Z,0.06
2022-12-14T18:29:27.644Z,0.05
2022-12-14T18:32:31.932Z,-0.10
2022-12-14T18:35:38.429Z,-0.22
2022-12-14T18:38:41.128Z,-0.29
2022-12-14T18:41:43.855Z,-0.42
2022-12-14T18:44:46.656Z,-0.56
2022-12-14T18:47:51.465Z,-0.69
2022-12-14T18:50:55.799Z,-0.82
2022-12-14T18:54:00.666Z,-0.95
2022-12-14T18:57:03.445Z,-1.02
2022-12-14T19:00:11.350Z,-1.07
2022-12-14T19:03:16.132Z,-1.12
2022-12-14T19:06:43.593Z,-1.12
2022-12-14T19:09:44.255Z,-1.14
2022-12-14T19:12:48.540Z,-1.23
2022-12-14T19:15:51.410Z,-1.16
2022-12-14T19:18:56.662Z,-1.18
2022-12-14T19:21:59.419Z,-1.16
2022-12-14T19:25:02.147Z,-1.17
2022-12-14T19:28:32.808Z,-1.35
2022-12-14T19:31:36.219Z,-1.33
2022-12-14T19:34:40.313Z,-1.36
2022-12-14T19:37:43.049Z,-1.37
2022-12-14T19:40:46.893Z,-1.44
2022-12-14T19:43:49.673Z,-1.32
2022-12-14T19:46:52.906Z,-1.29
2022-12-14T19:49:57.471Z,-1.26
2022-12-14T19:53:00.501Z,-1.22
2022-12-14T19:56:04.424Z,-1.18
2022-12-14T19:59:07.242Z,-1.11
2022-12-14T20:02:13.250Z,-1.11
2022-12-14T20:05:18.301Z,-0.98
2022-12-14T20:08:21.064Z,-0.95
2022-12-14T20:11:24.466Z,-0.93
2022-12-14T20:14:30.303Z,-0.95
2022-12-14T20:17:33.198Z,-0.96
2022-12-14T20:20:40.416Z,-1.04
2022-12-14T20:23:43.241Z,-1.09
2022-12-14T20:26:46.235Z,-1.23
2022-12-14T20:29:52.144Z,-1.33
2022-12-14T20:32:55.028Z,-1.39
2022-12-14T20:35:59.716Z,-1.45
2022-12-14T20:39:03.392Z,-1.41
2022-12-14T20:42:06.231Z,-1.49
2022-12-14T20:45:15.298Z,-1.54
2022-12-14T20:48:17.985Z,-1.56
2022-12-14T20:51:22.220Z,-1.59
2022-12-14T20:54:25.555Z,-1.60
2022-12-14T20:57:28.443Z,-1.63
2022-12-14T21:00:31.203Z,-1.67
2022-12-14T21:03:37.387Z,-1.81
2022-12-14T21:06:43.500Z,-1.72
2022-12-14T21:09:46.505Z,-1.70
2022-12-14T21:12:49.724Z,-1.67
2022-12-14T21:15:55.539Z,-1.67
2022-12-14T21:18:58.263Z,-1.61
2022-12-14T21:22:03.347Z,-1.65
2022-12-14T21:25:07.320Z,-1.64
2022-12-14T21:28:10.411Z,-1.63
2022-12-14T21:31:15.879Z,-1.64
2022-12-14T21:34:20.719Z,-1.61
2022-12-14T21:37:24.917Z,-1.58
2022-12-14T21:40:45.144Z,-1.56
2022-12-14T21:43:47.922Z,-1.54
2022-12-14T21:46:50.623Z,-1.66
2022-12-14T21:49:53.835Z,-1.52
2022-12-14T21:52:58.004Z,-1.58
2022-12-14T21:56:20.957Z,-1.58
2022-12-14T21:59:26.437Z,-1.56
2022-12-14T22:02:30.424Z,-1.66
2022-12-14T22:05:33.282Z,-1.51
2022-12-14T22:08:37.540Z,-1.49
2022-12-14T22:11:40.222Z,-1.49
2022-12-14T22:14:43.533Z,-1.50
2022-12-14T22:17:46.302Z,-1.53
2022-12-14T22:20:49.108Z,-1.54
2022-12-14T22:23:54.643Z,-1.53
2022-12-14T22:26:57.981Z,-1.55
2022-12-14T22:30:00.654Z,-1.56
2022-12-14T22:33:03.616Z,-1.54
2022-12-14T22:36:10.114Z,-1.52
2022-12-14T22:39:14.895Z,-1.51
2022-12-14T22:42:17.711Z,-1.48
2022-12-14T22:45:21.045Z,-1.46
2022-12-14T22:48:23.791Z,-1.46
2022-12-14T22:51:29.097Z,-1.46
2022-12-14T22:54:33.175Z,-1.46
2022-12-14T22:57:41.600Z,-1.48
2022-12-14T23:00:44.571Z,-1.48
2022-12-14T23:03:48.379Z,-1.57
2022-12-14T23:06:51.232Z,-1.45
2022-12-14T23:10:12.702Z,-1.46
2022-12-14T23:13:33.589Z,-1.47
2022-12-14T23:16:53.968Z,-1.51
2022-12-14T23:20:14.135Z,-1.58
2022-12-14T23:23:34.700Z,-1.61
2022-12-14T23:26:56.553Z,-1.68
2022-12-14T23:30:17.540Z,-1.74
2022-12-14T23:33:37.922Z,-1.75
2022-12-14T23:36:58.092Z,-1.75
2022-12-14T23:40:18.477Z,-1.71
2022-12-14T23:43:39.812Z,-1.70
2022-12-14T23:47:00.575Z,-1.63
2022-12-14T23:50:21.086Z,-1.67
2022-12-14T23:53:41.595Z,-1.52
2022-12-14T23:57:01.530Z,-1.51
